»·PEaware :: SCX720 KOTH-KOLM

SCX720 :: KOTH-KOLM

FLIGHT INFORMATION

Flight Status: Arrived
Operator:
Sun Country Airlines
More flights by this operator :: More flights under this callsign
Pilot: Shawn N. (11060)
Aircraft: BOEING 737-800
(B738)
More flights by this aircraft type
Origin: KOTH North Bend Mun
United States
Destination: KOLM Olympia
United States
More flights between these airports :: More routes between these airports
Route: OTH6 RARES V287 OLM
File this flight plan on PilotEdge
Remarks:
Altitude:
(Current/Filed)
27,000ft
Speed:
(Current/Filed)
450kts
Departed: 22-Jun-18 05:03 PM
Arrived: 22-Jun-18 05:45 PM
Distance/Time
Traveled:
221nm/0:42
Distance/Time
To Go:
Arrived

Flight Plot

Page will automatically refresh every two minutes.

Flight plan parsing failed; only flown route is shown


Map Options




Map Legend


Flown Route
Filed Route
Departure Airport
Arrival Airport
Navaid (VOR, NDB)
Fix

Horizontal Profiles

Position Reports

Time Latitude Longitude Heading Altitude Ground
Speed
22-Jun-18 16:28 43.416868 -124.249564 212 30ft 0kts
22-Jun-18 16:29 43.416868 -124.249564 212 30ft 0kts
22-Jun-18 16:30 43.416868 -124.249564 212 30ft 0kts
22-Jun-18 16:31 43.416868 -124.249564 212 30ft 0kts
22-Jun-18 16:32 43.416868 -124.249564 212 30ft 0kts
22-Jun-18 16:33 43.416868 -124.249564 212 30ft 0kts
22-Jun-18 16:34 43.416868 -124.249564 212 30ft 0kts
22-Jun-18 16:35 43.416868 -124.249564 212 30ft 0kts
22-Jun-18 16:36 43.416868 -124.249564 212 30ft 0kts
22-Jun-18 16:37 43.416868 -124.249564 212 30ft 0kts
22-Jun-18 16:38 43.416868 -124.249564 212 30ft 0kts
22-Jun-18 16:39 43.416868 -124.249564 212 30ft 0kts
22-Jun-18 16:40 43.416868 -124.249564 212 30ft 0kts
22-Jun-18 16:41 43.416868 -124.249564 212 30ft 0kts
22-Jun-18 16:42 43.416868 -124.249564 212 30ft 0kts
22-Jun-18 16:43 43.416868 -124.249564 212 30ft 0kts
22-Jun-18 16:44 43.416868 -124.249564 212 30ft 0kts
22-Jun-18 16:45 43.416868 -124.249564 212 30ft 0kts
22-Jun-18 16:46 43.416868 -124.249564 212 30ft 0kts
22-Jun-18 16:47 43.416868 -124.249563 212 30ft 0kts
22-Jun-18 16:48 43.417025 -124.249329 251 29ft 2kts
22-Jun-18 16:49 43.416993 -124.248925 295 29ft 0kts
22-Jun-18 16:50 43.416993 -124.248926 295 29ft 0kts
22-Jun-18 16:51 43.416993 -124.248926 295 29ft 0kts
22-Jun-18 16:52 43.416993 -124.248926 295 29ft 0kts
22-Jun-18 16:53 43.416993 -124.248926 295 29ft 0kts
22-Jun-18 16:54 43.417354 -124.249342 339 28ft 6kts
22-Jun-18 16:55 43.417456 -124.249398 336 27ft 0kts
22-Jun-18 16:56 43.417023 -124.251929 240 26ft 15kts
22-Jun-18 16:57 43.415134 -124.256522 240 18ft 4kts
22-Jun-18 16:58 43.414096 -124.259069 240 12ft 0kts
22-Jun-18 16:59 43.413950 -124.259882 316 11ft 2kts
22-Jun-18 17:00 43.413969 -124.259905 318 11ft 0kts
22-Jun-18 17:01 43.414539 -124.260385 334 11ft 7kts
22-Jun-18 17:02 43.414874 -124.260226 60 11ft 0kts
22-Jun-18 17:03 43.423278 -124.238967 54 167ft 184kts
22-Jun-18 17:04 43.452766 -124.254200 254 3028ft 224kts
22-Jun-18 17:05 43.415923 -124.330861 251 5832ft 264kts
22-Jun-18 17:06 43.440142 -124.415844 331 9130ft 270kts
22-Jun-18 17:07 43.513804 -124.458535 335 12009ft 307kts
22-Jun-18 17:08 43.600084 -124.441840 11 15145ft 337kts
22-Jun-18 17:09 43.691738 -124.402483 11 17887ft 356kts
22-Jun-18 17:10 43.787080 -124.361371 10 20530ft 369kts
22-Jun-18 17:11 43.886463 -124.318382 10 22867ft 382kts
22-Jun-18 17:12 43.984803 -124.275685 10 24970ft 392kts
22-Jun-18 17:13 44.089878 -124.229893 9 26979ft 402kts
22-Jun-18 17:14 44.196515 -124.183391 10 27244ft 426kts
22-Jun-18 17:15 44.311841 -124.132886 10 27285ft 447kts
22-Jun-18 17:16 44.429938 -124.080753 10 27283ft 446kts
22-Jun-18 17:17 44.547694 -124.028553 10 27283ft 446kts
22-Jun-18 17:18 44.665724 -123.976010 10 27283ft 446kts
22-Jun-18 17:19 44.782918 -123.923589 9 27281ft 444kts
22-Jun-18 17:20 44.900204 -123.870932 9 27282ft 444kts
22-Jun-18 17:21 45.017429 -123.818087 9 27264ft 444kts
22-Jun-18 17:22 45.128523 -123.767801 9 27270ft 444kts
22-Jun-18 17:23 45.244789 -123.714751 9 27251ft 415kts
22-Jun-18 17:24 45.343430 -123.669603 8 27269ft 409kts
22-Jun-18 17:25 45.450643 -123.620426 8 26890ft 400kts
22-Jun-18 17:26 45.556219 -123.571834 9 24156ft 395kts
22-Jun-18 17:27 45.658669 -123.524440 9 21820ft 382kts
22-Jun-18 17:28 45.757034 -123.478759 9 19612ft 369kts
22-Jun-18 17:29 45.852077 -123.434495 10 17512ft 357kts
22-Jun-18 17:30 45.944580 -123.391335 11 16084ft 352kts
22-Jun-18 17:31 46.036067 -123.348559 12 15652ft 348kts
22-Jun-18 17:32 46.115216 -123.311366 12 14674ft 343kts
22-Jun-18 17:33 46.203859 -123.269577 13 13166ft 334kts
22-Jun-18 17:34 46.290404 -123.228641 14 11451ft 323kts
22-Jun-18 17:35 46.374274 -123.188836 14 9802ft 308kts
22-Jun-18 17:36 46.451486 -123.152019 14 8977ft 288kts
22-Jun-18 17:37 46.526985 -123.116000 14 8089ft 281kts
22-Jun-18 17:38 46.600374 -123.080904 15 6837ft 283kts
22-Jun-18 17:39 46.670626 -123.047249 15 5459ft 290kts
22-Jun-18 17:40 46.745006 -123.011495 16 4049ft 290kts
22-Jun-18 17:41 46.812963 -122.978639 16 3563ft 242kts
22-Jun-18 17:42 46.871360 -122.940353 50 2617ft 224kts
22-Jun-18 17:43 46.916999 -122.919127 4 1469ft 146kts
22-Jun-18 17:44 46.955444 -122.908674 5 344ft 136kts
22-Jun-18 17:45 46.974291 -122.903218 10 201ft 35kts
22-Jun-18 17:46 46.976786 -122.907754 267 201ft 11kts
22-Jun-18 17:47 46.974939 -122.908970 255 202ft 8kts
22-Jun-18 17:48 46.975086 -122.909423 2 201ft 0kts
22-Jun-18 17:49 46.975086 -122.909423 2 201ft 0kts
22-Jun-18 17:50 46.975086 -122.909423 2 201ft 0kts
22-Jun-18 17:51 46.975086 -122.909423 2 201ft 0kts
22-Jun-18 17:52 46.975086 -122.909423 2 201ft 0kts
22-Jun-18 17:53 46.975086 -122.909423 2 201ft 0kts
22-Jun-18 17:54 46.975086 -122.909423 2 201ft 0kts
22-Jun-18 17:55 46.975086 -122.909423 2 201ft 0kts
22-Jun-18 17:56 46.975086 -122.909423 2 201ft 0kts
22-Jun-18 17:57 46.975086 -122.909423 2 201ft 0kts
22-Jun-18 17:58 46.975086 -122.909423 2 201ft 0kts
22-Jun-18 17:59 46.975086 -122.909423 2 201ft 0kts

Navigation Log

Ident Type
Flight plan parsing failed, navigation log unavailable